createdAt,value
2022-12-31T00:00:15.145Z,8.02
2022-12-31T00:02:42.450Z,8.02
2022-12-31T00:05:10.246Z,8.04
2022-12-31T00:10:05.013Z,8.30
2022-12-31T00:12:32.341Z,8.35
2022-12-31T00:14:59.567Z,8.44
2022-12-31T00:17:26.742Z,8.52
2022-12-31T00:19:54.009Z,8.54
2022-12-31T00:22:21.335Z,8.60
2022-12-31T00:24:48.828Z,8.65
2022-12-31T00:27:16.741Z,8.66
2022-12-31T00:29:43.967Z,8.61
2022-12-31T00:32:11.188Z,8.62
2022-12-31T00:34:38.597Z,8.59
2022-12-31T00:37:05.844Z,8.57
2022-12-31T00:39:33.017Z,8.58
2022-12-31T00:42:00.259Z,8.59
2022-12-31T00:44:27.455Z,8.65
2022-12-31T00:46:54.623Z,8.75
2022-12-31T00:49:21.899Z,8.76
2022-12-31T00:51:49.369Z,8.77
2022-12-31T00:54:16.603Z,8.79
2022-12-31T00:56:43.791Z,8.82
2022-12-31T00:59:10.966Z,8.81
2022-12-31T01:01:39.890Z,8.84
2022-12-31T01:04:16.612Z,8.86
2022-12-31T01:06:44.390Z,8.87
2022-12-31T01:09:12.841Z,8.95
2022-12-31T01:11:40.071Z,9.00
2022-12-31T01:14:08.823Z,9.06
2022-12-31T01:16:42.383Z,9.15
2022-12-31T01:19:12.564Z,9.29
2022-12-31T01:21:40.819Z,9.37
2022-12-31T01:24:08.953Z,9.36
2022-12-31T01:26:36.389Z,9.44
2022-12-31T01:29:04.381Z,9.46
2022-12-31T01:31:33.019Z,9.45
2022-12-31T01:34:00.660Z,9.51
2022-12-31T01:36:29.556Z,9.57
2022-12-31T01:38:58.182Z,9.61
2022-12-31T01:41:28.127Z,9.61
2022-12-31T01:43:58.514Z,9.66
2022-12-31T01:46:44.576Z,9.70
2022-12-31T01:49:21.808Z,9.62
2022-12-31T01:51:52.623Z,9.69
2022-12-31T01:54:22.180Z,9.74
2022-12-31T01:56:50.156Z,9.72
2022-12-31T01:59:18.645Z,9.80
2022-12-31T02:01:48.225Z,9.84
2022-12-31T02:04:16.217Z,9.85
2022-12-31T02:06:58.978Z,9.83
2022-12-31T02:09:26.456Z,9.84
2022-12-31T02:11:53.643Z,9.87
2022-12-31T02:14:31.691Z,9.86
2022-12-31T02:17:17.109Z,9.85
2022-12-31T02:20:10.899Z,9.91
2022-12-31T02:23:19.465Z,9.92
2022-12-31T02:26:03.449Z,9.88
2022-12-31T02:29:04.435Z,9.94
2022-12-31T02:31:47.398Z,9.92
2022-12-31T02:34:20.869Z,9.93
2022-12-31T02:36:49.192Z,9.93
2022-12-31T02:39:16.594Z,9.92
2022-12-31T02:41:54.818Z,9.99
2022-12-31T02:44:28.274Z,10.02
2022-12-31T02:47:19.123Z,10.07
2022-12-31T02:49:59.885Z,10.12
2022-12-31T02:52:53.379Z,10.19
2022-12-31T02:55:38.036Z,10.24
2022-12-31T02:58:22.857Z,10.26
2022-12-31T03:01:12.275Z,10.29
2022-12-31T03:03:40.311Z,10.29
2022-12-31T03:06:08.943Z,10.36
2022-12-31T03:08:56.139Z,10.34
2022-12-31T03:11:42.294Z,10.29
2022-12-31T03:14:09.498Z,10.33
2022-12-31T03:16:36.763Z,10.32
2022-12-31T03:19:22.691Z,10.36
2022-12-31T03:22:08.339Z,10.35
2022-12-31T03:24:54.033Z,10.38
2022-12-31T03:27:21.276Z,10.44
2022-12-31T03:29:48.465Z,10.45
2022-12-31T03:32:15.629Z,10.44
2022-12-31T03:34:42.880Z,10.54
2022-12-31T03:37:10.054Z,10.63
2022-12-31T03:39:37.210Z,10.66
2022-12-31T03:42:04.616Z,10.63
2022-12-31T03:44:31.825Z,10.64
2022-12-31T03:46:59.121Z,10.71
2022-12-31T03:49:26.304Z,10.62
2022-12-31T03:51:53.467Z,10.62
2022-12-31T03:54:20.750Z,10.64
2022-12-31T03:56:49.540Z,10.52
2022-12-31T03:59:16.832Z,10.51
2022-12-31T04:01:44.128Z,10.51
2022-12-31T04:04:11.414Z,10.50
2022-12-31T04:06:38.796Z,10.51
2022-12-31T04:09:05.972Z,10.60
2022-12-31T04:11:33.205Z,10.65
2022-12-31T04:14:00.400Z,10.61
2022-12-31T04:16:27.647Z,10.64
2022-12-31T04:18:54.875Z,10.66
2022-12-31T04:21:22.037Z,10.68
2022-12-31T04:23:49.218Z,10.66
2022-12-31T04:26:16.379Z,10.72
2022-12-31T04:28:43.552Z,10.72
2022-12-31T04:31:11.243Z,10.73
2022-12-31T04:33:38.423Z,10.74
2022-12-31T04:36:07.514Z,10.77
2022-12-31T04:38:34.887Z,10.75
2022-12-31T04:41:17.410Z,10.75
2022-12-31T04:43:49.667Z,10.71
2022-12-31T04:46:18.183Z,10.69
2022-12-31T04:48:45.356Z,10.66
2022-12-31T04:51:13.191Z,10.68
2022-12-31T04:53:40.479Z,10.66
2022-12-31T04:56:08.347Z,10.69
2022-12-31T04:58:36.273Z,10.69
2022-12-31T05:01:03.604Z,10.70
2022-12-31T05:03:31.137Z,10.74
2022-12-31T05:06:11.073Z,10.77
2022-12-31T05:08:38.250Z,10.80
2022-12-31T05:11:05.438Z,10.83
2022-12-31T05:13:33.583Z,10.86
2022-12-31T05:16:01.600Z,10.87
2022-12-31T05:18:29.223Z,10.85
2022-12-31T05:20:56.433Z,10.83
2022-12-31T05:23:23.658Z,10.80
2022-12-31T05:25:51.279Z,10.83
2022-12-31T05:28:18.682Z,10.81
2022-12-31T05:30:48.987Z,10.77
2022-12-31T05:33:16.508Z,10.75
2022-12-31T05:35:43.698Z,10.75
2022-12-31T05:38:10.878Z,10.73
2022-12-31T05:40:38.029Z,10.62
2022-12-31T05:43:05.435Z,10.59
2022-12-31T05:45:32.579Z,10.58
2022-12-31T05:47:59.802Z,10.58
2022-12-31T05:50:27.019Z,10.59
2022-12-31T05:52:54.192Z,10.63
2022-12-31T05:55:21.382Z,10.67
2022-12-31T05:57:48.667Z,10.67
2022-12-31T06:00:16.220Z,10.68
2022-12-31T06:02:43.557Z,10.66
2022-12-31T06:05:10.760Z,10.67
2022-12-31T06:07:37.914Z,10.68
2022-12-31T06:10:05.836Z,10.71
2022-12-31T06:12:33.103Z,10.76
2022-12-31T06:15:00.497Z,10.81
2022-12-31T06:17:28.029Z,10.88
2022-12-31T06:19:55.239Z,10.98
2022-12-31T06:22:22.426Z,11.01
2022-12-31T06:24:49.602Z,11.00
2022-12-31T06:27:16.749Z,10.96
2022-12-31T06:29:45.645Z,10.95
2022-12-31T06:32:12.815Z,11.02
2022-12-31T06:34:40.005Z,11.13
2022-12-31T06:37:07.201Z,11.23
2022-12-31T06:39:34.372Z,11.17
2022-12-31T06:42:01.570Z,11.17
2022-12-31T06:44:28.758Z,11.28
2022-12-31T06:46:55.976Z,11.37
2022-12-31T06:49:23.198Z,11.39
2022-12-31T06:51:50.349Z,11.44
2022-12-31T06:54:17.722Z,11.45
2022-12-31T06:56:45.092Z,11.49
2022-12-31T06:59:26.218Z,11.59
2022-12-31T07:02:21.660Z,11.64
2022-12-31T07:05:28.629Z,11.71
2022-12-31T07:08:31.293Z,11.78
2022-12-31T07:11:09.567Z,11.87
2022-12-31T07:14:03.687Z,11.91
2022-12-31T07:16:47.204Z,11.91
2022-12-31T07:19:23.266Z,11.96
2022-12-31T07:21:52.008Z,12.05
2022-12-31T07:24:19.429Z,12.13
2022-12-31T07:27:08.448Z,12.09
2022-12-31T07:29:53.639Z,12.22
2022-12-31T07:32:57.571Z,12.22
2022-12-31T07:35:45.095Z,12.24
2022-12-31T07:38:44.496Z,12.24
2022-12-31T07:41:16.967Z,12.33
2022-12-31T07:44:08.323Z,12.42
2022-12-31T07:46:55.792Z,12.49
2022-12-31T07:49:24.679Z,12.55
2022-12-31T07:51:52.381Z,12.58
2022-12-31T07:54:19.865Z,12.64
2022-12-31T07:56:47.605Z,12.70
2022-12-31T07:59:58.742Z,12.66
2022-12-31T08:02:56.795Z,12.68
2022-12-31T08:05:31.887Z,12.80
2022-12-31T08:08:09.366Z,12.87
2022-12-31T08:11:01.714Z,12.90
2022-12-31T08:13:29.192Z,12.98
2022-12-31T08:15:56.545Z,12.99
2022-12-31T08:18:23.869Z,12.98
2022-12-31T08:21:02.740Z,13.01
2022-12-31T08:23:41.444Z,12.97
2022-12-31T08:26:30.382Z,13.02
2022-12-31T08:29:04.845Z,13.08
2022-12-31T08:31:53.824Z,13.13
2022-12-31T08:34:46.419Z,13.15
2022-12-31T08:37:19.220Z,13.19
2022-12-31T08:40:10.458Z,13.28
2022-12-31T08:43:13.947Z,13.34
2022-12-31T08:45:49.982Z,13.40
2022-12-31T08:48:37.879Z,13.47
2022-12-31T08:51:05.674Z,13.54
2022-12-31T08:53:33.089Z,13.62
2022-12-31T08:56:13.022Z,13.70
2022-12-31T08:58:44.927Z,13.72
2022-12-31T09:01:13.483Z,13.77
2022-12-31T09:04:06.065Z,13.84
2022-12-31T09:06:41.935Z,13.90
2022-12-31T09:09:38.236Z,13.89
2022-12-31T09:12:17.006Z,13.86
2022-12-31T09:14:57.330Z,13.89
2022-12-31T09:17:48.900Z,13.89
2022-12-31T09:20:41.894Z,13.99
2022-12-31T09:23:12.360Z,14.15
2022-12-31T09:26:06.256Z,14.29
2022-12-31T09:28:54.427Z,14.37
2022-12-31T09:31:44.111Z,14.35
2022-12-31T09:34:28.130Z,14.52
2022-12-31T09:37:17.863Z,14.55
2022-12-31T09:39:47.216Z,14.63
2022-12-31T09:42:52.174Z,14.66
2022-12-31T09:45:34.007Z,14.67
2022-12-31T09:48:16.933Z,14.79
2022-12-31T09:51:10.637Z,14.85
2022-12-31T09:53:53.330Z,14.94
2022-12-31T09:56:32.905Z,15.02
2022-12-31T09:59:42.352Z,15.08
2022-12-31T10:02:41.469Z,15.04
2022-12-31T10:05:33.360Z,15.14
2022-12-31T10:08:15.571Z,15.17
2022-12-31T10:10:52.778Z,15.13
2022-12-31T10:13:50.889Z,15.36
2022-12-31T10:17:00.421Z,15.33
2022-12-31T10:20:13.277Z,15.56
2022-12-31T10:23:03.958Z,15.69
2022-12-31T10:25:55.716Z,15.79
2022-12-31T10:28:56.089Z,15.87
2022-12-31T10:31:40.543Z,15.91
2022-12-31T10:34:34.688Z,15.89
2022-12-31T10:37:17.349Z,15.72
2022-12-31T10:40:00.529Z,15.71
2022-12-31T10:42:36.287Z,15.72
2022-12-31T10:45:29.721Z,15.75
2022-12-31T10:48:29.684Z,15.68
2022-12-31T10:51:21.404Z,15.61
2022-12-31T10:54:09.824Z,15.67
2022-12-31T10:56:46.169Z,15.70
2022-12-31T10:59:34.632Z,15.72
2022-12-31T11:02:21.875Z,15.75
2022-12-31T11:05:03.979Z,15.75
2022-12-31T11:07:43.392Z,15.69
2022-12-31T11:10:59.167Z,15.69
2022-12-31T11:13:36.009Z,15.73
2022-12-31T11:16:24.211Z,15.77
2022-12-31T11:19:16.785Z,15.80
2022-12-31T11:22:13.459Z,15.80
2022-12-31T11:25:03.910Z,15.91
2022-12-31T11:27:53.256Z,15.93
2022-12-31T11:30:33.631Z,16.02
2022-12-31T11:33:20.278Z,15.99
2022-12-31T11:36:15.709Z,16.05
2022-12-31T11:38:52.128Z,16.15
2022-12-31T11:41:54.641Z,16.18
2022-12-31T11:44:40.612Z,16.23
2022-12-31T11:47:49.676Z,16.21
2022-12-31T11:50:28.106Z,16.16
2022-12-31T11:53:11.520Z,16.16
2022-12-31T11:55:53.272Z,16.30
2022-12-31T11:58:22.044Z,16.37
2022-12-31T12:01:04.684Z,16.40
2022-12-31T12:03:32.540Z,16.43
2022-12-31T12:06:00.123Z,16.40
2022-12-31T12:08:31.135Z,16.39
2022-12-31T12:11:05.853Z,16.44
2022-12-31T12:13:33.745Z,16.46
2022-12-31T12:16:05.627Z,16.39
2022-12-31T12:18:45.879Z,16.35
2022-12-31T12:21:19.446Z,16.36
2022-12-31T12:23:58.834Z,16.35
2022-12-31T12:26:28.562Z,16.37
2022-12-31T12:28:55.779Z,16.29
2022-12-31T12:31:26.846Z,16.36
2022-12-31T12:33:54.088Z,16.27
2022-12-31T12:36:21.986Z,16.20
2022-12-31T12:39:04.413Z,16.22
2022-12-31T12:41:31.823Z,16.11
2022-12-31T12:44:17.374Z,16.07
2022-12-31T12:46:48.618Z,16.07
2022-12-31T12:49:28.370Z,16.07
2022-12-31T12:52:13.400Z,16.04
2022-12-31T12:54:59.840Z,16.11
2022-12-31T12:57:59.868Z,16.17
2022-12-31T13:01:29.558Z,16.13
2022-12-31T13:04:35.196Z,16.18
2022-12-31T13:07:07.776Z,16.21
2022-12-31T13:10:02.257Z,16.20
2022-12-31T13:13:22.891Z,16.25
2022-12-31T13:15:42.596Z,16.16
2022-12-31T13:18:27.643Z,16.06
2022-12-31T13:20:56.604Z,16.10
2022-12-31T13:23:46.228Z,16.19
2022-12-31T13:26:31.764Z,16.21
2022-12-31T13:28:59.366Z,16.22
2022-12-31T13:31:36.421Z,16.23
2022-12-31T13:34:09.021Z,16.14
2022-12-31T13:36:39.774Z,16.17
2022-12-31T13:39:14.356Z,16.36
2022-12-31T13:41:50.786Z,16.36
2022-12-31T13:44:39.892Z,16.43
2022-12-31T13:47:09.959Z,16.27
2022-12-31T13:49:45.568Z,16.32
2022-12-31T13:52:33.754Z,16.38
2022-12-31T13:55:29.160Z,16.45
2022-12-31T13:58:38.378Z,16.30
2022-12-31T14:01:22.100Z,16.26
2022-12-31T14:04:14.011Z,16.24
2022-12-31T14:06:49.323Z,16.21
2022-12-31T14:09:37.723Z,16.14
2022-12-31T14:12:28.954Z,15.97
2022-12-31T14:14:59.005Z,15.92
2022-12-31T14:17:42.903Z,15.92
2022-12-31T14:20:29.225Z,15.91
2022-12-31T14:23:37.840Z,15.89
2022-12-31T14:26:15.966Z,15.80
2022-12-31T14:28:49.785Z,15.89
2022-12-31T14:31:37.767Z,15.83
2022-12-31T14:34:42.798Z,15.77
2022-12-31T14:37:22.288Z,15.66
2022-12-31T14:39:58.201Z,15.62
2022-12-31T14:43:01.672Z,15.52
2022-12-31T14:45:45.858Z,15.46
2022-12-31T14:48:46.846Z,15.44
2022-12-31T14:51:14.405Z,15.43
2022-12-31T14:53:53.034Z,15.62
2022-12-31T14:56:32.475Z,15.71
2022-12-31T14:59:01.383Z,15.82
2022-12-31T15:01:29.479Z,15.69
2022-12-31T15:03:58.083Z,15.64
2022-12-31T15:06:44.481Z,15.68
2022-12-31T15:09:43.315Z,15.65
2022-12-31T15:12:29.116Z,15.58
2022-12-31T15:15:18.192Z,15.60
2022-12-31T15:18:05.752Z,15.58
2022-12-31T15:20:46.040Z,15.50
2022-12-31T15:23:22.833Z,15.50
2022-12-31T15:25:57.126Z,15.55
2022-12-31T15:28:36.818Z,15.50
2022-12-31T15:31:17.721Z,15.59
2022-12-31T15:33:58.243Z,15.52
2022-12-31T15:36:35.511Z,15.57
2022-12-31T15:39:20.486Z,15.62
2022-12-31T15:42:35.675Z,15.61
2022-12-31T15:44:59.914Z,15.54
2022-12-31T15:47:41.636Z,15.55
2022-12-31T15:50:15.543Z,15.49
2022-12-31T15:52:52.499Z,15.42
2022-12-31T15:55:44.715Z,15.32
2022-12-31T15:58:17.076Z,15.28
2022-12-31T16:00:55.761Z,15.30
2022-12-31T16:03:28.175Z,15.31
2022-12-31T16:06:01.665Z,15.36
2022-12-31T16:08:38.380Z,15.38
2022-12-31T16:11:08.136Z,15.49
2022-12-31T16:13:39.487Z,15.44
2022-12-31T16:16:16.527Z,15.48
2022-12-31T16:18:44.440Z,15.41
2022-12-31T16:21:32.488Z,15.40
2022-12-31T16:24:05.530Z,15.50
2022-12-31T16:26:50.023Z,15.54
2022-12-31T16:29:19.097Z,15.52
2022-12-31T16:31:47.335Z,15.47
2022-12-31T16:34:17.259Z,15.47
2022-12-31T16:36:58.824Z,15.50
2022-12-31T16:39:32.196Z,15.63
2022-12-31T16:42:13.092Z,15.60
2022-12-31T16:44:40.945Z,15.68
2022-12-31T16:47:10.075Z,15.69
2022-12-31T16:49:38.096Z,15.67
2022-12-31T16:52:17.937Z,15.60
2022-12-31T16:54:47.208Z,15.63
2022-12-31T16:57:25.834Z,15.57
2022-12-31T16:59:56.046Z,15.60
2022-12-31T17:02:34.045Z,15.69
2022-12-31T17:05:02.134Z,15.67
2022-12-31T17:07:37.650Z,15.71
2022-12-31T17:10:07.576Z,15.69
2022-12-31T17:13:17.541Z,15.71
2022-12-31T17:15:40.021Z,15.70
2022-12-31T17:18:07.926Z,15.65
2022-12-31T17:20:35.521Z,15.57
2022-12-31T17:23:09.795Z,15.59
2022-12-31T17:25:37.988Z,15.66
2022-12-31T17:28:25.195Z,15.66
2022-12-31T17:30:52.843Z,15.66
2022-12-31T17:33:22.778Z,15.68
2022-12-31T17:36:13.686Z,15.63
2022-12-31T17:38:44.027Z,15.73
2022-12-31T17:41:26.550Z,15.63
2022-12-31T17:43:58.011Z,15.63
2022-12-31T17:46:25.838Z,15.55
2022-12-31T17:49:01.848Z,15.51
2022-12-31T17:51:29.047Z,15.48
2022-12-31T17:53:56.270Z,15.50
2022-12-31T17:56:23.479Z,15.48
2022-12-31T17:58:54.276Z,15.45
2022-12-31T18:01:23.540Z,15.40
2022-12-31T18:03:50.914Z,15.39
2022-12-31T18:06:19.484Z,15.40
2022-12-31T18:08:47.124Z,15.32
2022-12-31T18:11:20.481Z,15.32
2022-12-31T18:13:48.098Z,15.29
2022-12-31T18:16:15.439Z,15.34
2022-12-31T18:18:45.395Z,15.34
2022-12-31T18:21:25.432Z,15.33
2022-12-31T18:26:22.279Z,15.26
2022-12-31T18:28:50.165Z,15.13
2022-12-31T18:31:20.198Z,15.17
2022-12-31T18:33:48.190Z,15.21
2022-12-31T18:36:17.011Z,15.24
2022-12-31T18:38:44.443Z,15.24
2022-12-31T18:41:27.716Z,15.07
2022-12-31T18:43:55.865Z,15.01
2022-12-31T18:46:24.352Z,15.07
2022-12-31T18:48:51.825Z,15.04
2022-12-31T18:51:23.982Z,15.08
2022-12-31T18:53:53.814Z,15.08
2022-12-31T18:56:22.142Z,15.05
2022-12-31T18:58:49.479Z,15.05
2022-12-31T19:01:29.650Z,15.02
2022-12-31T19:04:02.097Z,14.98
2022-12-31T19:06:30.590Z,14.96
2022-12-31T19:09:00.883Z,14.89
2022-12-31T19:11:28.549Z,14.84
2022-12-31T19:13:55.982Z,14.75
2022-12-31T19:16:23.316Z,14.75
2022-12-31T19:18:50.903Z,14.76
2022-12-31T19:21:22.350Z,14.77
2022-12-31T19:23:52.349Z,14.74
2022-12-31T19:26:21.707Z,14.70
2022-12-31T19:28:50.983Z,14.68
2022-12-31T19:31:18.318Z,14.59
2022-12-31T19:33:45.861Z,14.55
2022-12-31T19:36:17.679Z,14.50
2022-12-31T19:38:45.588Z,14.52
2022-12-31T19:41:20.007Z,14.54
2022-12-31T19:43:47.978Z,14.49
2022-12-31T19:46:16.733Z,14.43
2022-12-31T19:48:44.468Z,14.41
2022-12-31T19:51:15.721Z,14.39
2022-12-31T19:53:43.407Z,14.43
2022-12-31T19:56:15.845Z,14.51
2022-12-31T19:58:43.436Z,14.53
2022-12-31T20:01:19.691Z,14.66
2022-12-31T20:03:47.224Z,14.67
2022-12-31T20:06:14.720Z,14.73
2022-12-31T20:08:43.371Z,14.74
2022-12-31T20:11:18.901Z,14.82
2022-12-31T20:13:47.570Z,14.85
2022-12-31T20:16:17.131Z,14.87
2022-12-31T20:18:45.942Z,14.83
2022-12-31T20:21:24.595Z,14.88
2022-12-31T20:23:53.263Z,14.81
2022-12-31T20:26:22.404Z,14.79
2022-12-31T20:28:50.743Z,14.78
2022-12-31T20:31:21.236Z,14.85
2022-12-31T20:33:49.809Z,15.02
2022-12-31T20:36:17.708Z,14.99
2022-12-31T20:38:45.593Z,15.13
2022-12-31T20:41:15.535Z,15.16
2022-12-31T20:43:43.756Z,15.12
2022-12-31T20:46:19.749Z,15.05
2022-12-31T20:48:48.235Z,15.04
2022-12-31T20:51:16.276Z,15.11
2022-12-31T20:53:55.883Z,15.03
2022-12-31T20:56:23.716Z,15.00
2022-12-31T20:58:51.317Z,15.04
2022-12-31T21:01:19.952Z,15.09
2022-12-31T21:04:05.786Z,15.10
2022-12-31T21:06:36.482Z,15.01
2022-12-31T21:09:05.784Z,15.11
2022-12-31T21:11:51.660Z,15.13
2022-12-31T21:14:19.125Z,15.17
2022-12-31T21:16:46.489Z,15.04
2022-12-31T21:19:13.819Z,15.06
2022-12-31T21:21:41.006Z,15.04
2022-12-31T21:24:08.480Z,15.00
2022-12-31T21:26:35.801Z,14.99
2022-12-31T21:29:03.181Z,15.04
2022-12-31T21:31:31.787Z,14.94
2022-12-31T21:33:59.097Z,15.00
2022-12-31T21:36:27.541Z,14.99
2022-12-31T21:38:54.804Z,14.98
2022-12-31T21:41:40.540Z,14.97
2022-12-31T21:44:08.097Z,14.91
2022-12-31T21:46:35.384Z,14.89
2022-12-31T21:49:02.663Z,14.89
2022-12-31T21:51:30.077Z,14.85
2022-12-31T21:53:57.701Z,14.80
2022-12-31T21:56:25.312Z,14.76
2022-12-31T21:59:13.685Z,14.75
2022-12-31T22:01:59.557Z,14.77
2022-12-31T22:07:14.519Z,14.78
2022-12-31T22:09:41.821Z,14.74
2022-12-31T22:12:09.040Z,14.64
2022-12-31T22:14:36.261Z,14.73
2022-12-31T22:17:03.581Z,14.66
2022-12-31T22:19:30.811Z,14.64
2022-12-31T22:21:58.269Z,14.70
2022-12-31T22:24:26.497Z,14.71
2022-12-31T22:26:55.605Z,14.70
2022-12-31T22:29:23.622Z,14.82
2022-12-31T22:31:55.533Z,14.84
2022-12-31T22:34:26.603Z,14.82
2022-12-31T22:36:53.820Z,14.77
2022-12-31T22:39:43.401Z,14.76
2022-12-31T22:42:08.523Z,14.67
2022-12-31T22:44:35.757Z,14.61
2022-12-31T22:47:03.004Z,14.60
2022-12-31T22:49:30.296Z,14.58
2022-12-31T22:52:01.756Z,14.78
2022-12-31T22:54:31.815Z,14.76
2022-12-31T22:56:59.005Z,14.65
2022-12-31T22:59:26.268Z,14.57
2022-12-31T23:01:53.682Z,14.57
2022-12-31T23:04:21.047Z,14.56
2022-12-31T23:06:48.287Z,14.61
2022-12-31T23:09:35.529Z,14.60
2022-12-31T23:12:04.267Z,14.61
2022-12-31T23:14:50.067Z,14.65
2022-12-31T23:17:41.431Z,14.57
2022-12-31T23:20:32.763Z,14.48
2022-12-31T23:23:05.719Z,14.44
2022-12-31T23:25:43.209Z,14.44
2022-12-31T23:28:20.379Z,14.50
2022-12-31T23:30:47.636Z,14.42
2022-12-31T23:33:17.470Z,14.36
2022-12-31T23:35:45.206Z,14.38
2022-12-31T23:38:12.784Z,14.35
2022-12-31T23:40:41.271Z,14.20
2022-12-31T23:43:09.726Z,14.24
2022-12-31T23:45:37.525Z,14.24
2022-12-31T23:48:04.849Z,14.25
2022-12-31T23:50:34.998Z,14.32
2022-12-31T23:53:02.631Z,14.23
2022-12-31T23:55:29.827Z,14.32
2022-12-31T23:57:56.989Z,14.44
